sensor_id;sensor_type;location;lat;lon;timestamp;pressure;altitude;pressure_sealevel;temperature
73937;BMP180;59249;59.736;30.568;2024-02-04T00:02:08;97839.00;;;0.00
73937;BMP180;59249;59.736;30.568;2024-02-04T00:04:42;97846.00;;;-0.10
73937;BMP180;59249;59.736;30.568;2024-02-04T00:07:12;97842.00;;;-0.10
73937;BMP180;59249;59.736;30.568;2024-02-04T00:09:42;97844.00;;;-0.10
73937;BMP180;59249;59.736;30.568;2024-02-04T00:12:11;97844.00;;;-0.10
73937;BMP180;59249;59.736;30.568;2024-02-04T00:14:40;97838.00;;;-0.20
73937;BMP180;59249;59.736;30.568;2024-02-04T00:17:11;97841.00;;;-0.20
73937;BMP180;59249;59.736;30.568;2024-02-04T00:19:42;97846.00;;;-0.30
73937;BMP180;59249;59.736;30.568;2024-02-04T00:22:13;97841.00;;;-0.40
73937;BMP180;59249;59.736;30.568;2024-02-04T00:24:48;97834.00;;;-0.30
73937;BMP180;59249;59.736;30.568;2024-02-04T00:27:23;97831.00;;;-0.40
73937;BMP180;59249;59.736;30.568;2024-02-04T00:29:59;97829.00;;;-0.40
73937;BMP180;59249;59.736;30.568;2024-02-04T00:32:32;97818.00;;;-0.50
73937;BMP180;59249;59.736;30.568;2024-02-04T00:35:02;97831.00;;;-0.50
73937;BMP180;59249;59.736;30.568;2024-02-04T00:37:32;97821.00;;;-0.50
73937;BMP180;59249;59.736;30.568;2024-02-04T00:40:05;97829.00;;;-0.60
73937;BMP180;59249;59.736;30.568;2024-02-04T00:42:36;97830.00;;;-0.50
73937;BMP180;59249;59.736;30.568;2024-02-04T00:45:07;97818.00;;;-0.60
73937;BMP180;59249;59.736;30.568;2024-02-04T00:47:38;97828.00;;;-0.60
73937;BMP180;59249;59.736;30.568;2024-02-04T00:50:19;97815.00;;;-0.60
73937;BMP180;59249;59.736;30.568;2024-02-04T00:52:51;97817.00;;;-0.60
73937;BMP180;59249;59.736;30.568;2024-02-04T00:55:27;97829.00;;;-0.60
73937;BMP180;59249;59.736;30.568;2024-02-04T00:57:59;97818.00;;;-0.60
73937;BMP180;59249;59.736;30.568;2024-02-04T01:00:31;97815.00;;;-0.60
73937;BMP180;59249;59.736;30.568;2024-02-04T01:03:04;97807.00;;;-0.60
73937;BMP180;59249;59.736;30.568;2024-02-04T01:05:36;97817.00;;;-0.60
73937;BMP180;59249;59.736;30.568;2024-02-04T01:08:12;97802.00;;;-0.60
73937;BMP180;59249;59.736;30.568;2024-02-04T01:10:43;97807.00;;;-0.60
73937;BMP180;59249;59.736;30.568;2024-02-04T01:13:12;97805.00;;;-0.70
73937;BMP180;59249;59.736;30.568;2024-02-04T01:15:45;97812.00;;;-0.70
73937;BMP180;59249;59.736;30.568;2024-02-04T01:18:14;97819.00;;;-0.70
73937;BMP180;59249;59.736;30.568;2024-02-04T01:20:43;97815.00;;;-0.70
73937;BMP180;59249;59.736;30.568;2024-02-04T01:23:12;97816.00;;;-0.80
73937;BMP180;59249;59.736;30.568;2024-02-04T01:25:45;97821.00;;;-0.80
73937;BMP180;59249;59.736;30.568;2024-02-04T01:28:15;97812.00;;;-0.80
73937;BMP180;59249;59.736;30.568;2024-02-04T01:30:44;97821.00;;;-0.80
73937;BMP180;59249;59.736;30.568;2024-02-04T01:33:13;97822.00;;;-0.80
73937;BMP180;59249;59.736;30.568;2024-02-04T01:35:42;97829.00;;;-0.80
73937;BMP180;59249;59.736;30.568;2024-02-04T01:38:12;97828.00;;;-0.80
73937;BMP180;59249;59.736;30.568;2024-02-04T01:40:41;97821.00;;;-0.80
73937;BMP180;59249;59.736;30.568;2024-02-04T01:43:12;97808.00;;;-0.90
73937;BMP180;59249;59.736;30.568;2024-02-04T01:45:41;97811.00;;;-0.90
73937;BMP180;59249;59.736;30.568;2024-02-04T01:48:12;97809.00;;;-0.90
73937;BMP180;59249;59.736;30.568;2024-02-04T01:50:43;97820.00;;;-0.90
73937;BMP180;59249;59.736;30.568;2024-02-04T01:53:19;97822.00;;;-0.90
73937;BMP180;59249;59.736;30.568;2024-02-04T01:55:53;97813.00;;;-0.90
73937;BMP180;59249;59.736;30.568;2024-02-04T01:58:25;97819.00;;;-0.90
73937;BMP180;59249;59.736;30.568;2024-02-04T02:00:57;97813.00;;;-0.90
73937;BMP180;59249;59.736;30.568;2024-02-04T02:03:26;97810.00;;;-0.90
73937;BMP180;59249;59.736;30.568;2024-02-04T02:05:59;97811.00;;;-1.00
73937;BMP180;59249;59.736;30.568;2024-02-04T02:08:29;97825.00;;;-1.00
73937;BMP180;59249;59.736;30.568;2024-02-04T02:11:05;97812.00;;;-1.00
73937;BMP180;59249;59.736;30.568;2024-02-04T02:13:43;97817.00;;;-1.00
73937;BMP180;59249;59.736;30.568;2024-02-04T02:16:18;97807.00;;;-1.10
73937;BMP180;59249;59.736;30.568;2024-02-04T02:18:53;97800.00;;;-1.10
73937;BMP180;59249;59.736;30.568;2024-02-04T02:21:35;97802.00;;;-1.10
73937;BMP180;59249;59.736;30.568;2024-02-04T02:24:30;97800.00;;;-1.10
73937;BMP180;59249;59.736;30.568;2024-02-04T02:27:01;97793.00;;;-1.10
73937;BMP180;59249;59.736;30.568;2024-02-04T02:29:38;97787.00;;;-1.20
73937;BMP180;59249;59.736;30.568;2024-02-04T02:32:11;97790.00;;;-1.20
73937;BMP180;59249;59.736;30.568;2024-02-04T02:34:41;97798.00;;;-1.20
73937;BMP180;59249;59.736;30.568;2024-02-04T02:37:24;97797.00;;;-1.20
73937;BMP180;59249;59.736;30.568;2024-02-04T02:40:03;97786.00;;;-1.20
73937;BMP180;59249;59.736;30.568;2024-02-04T02:42:37;97797.00;;;-1.20
73937;BMP180;59249;59.736;30.568;2024-02-04T02:45:09;97800.00;;;-1.20
73937;BMP180;59249;59.736;30.568;2024-02-04T02:47:41;97808.00;;;-1.30
73937;BMP180;59249;59.736;30.568;2024-02-04T02:50:15;97805.00;;;-1.30
73937;BMP180;59249;59.736;30.568;2024-02-04T02:52:47;97813.00;;;-1.20
73937;BMP180;59249;59.736;30.568;2024-02-04T02:55:17;97811.00;;;-1.20
73937;BMP180;59249;59.736;30.568;2024-02-04T02:57:51;97822.00;;;-1.20
73937;BMP180;59249;59.736;30.568;2024-02-04T03:00:22;97815.00;;;-1.30
73937;BMP180;59249;59.736;30.568;2024-02-04T03:02:57;97812.00;;;-1.30
73937;BMP180;59249;59.736;30.568;2024-02-04T03:05:27;97807.00;;;-1.30
73937;BMP180;59249;59.736;30.568;2024-02-04T03:07:59;97814.00;;;-1.30
73937;BMP180;59249;59.736;30.568;2024-02-04T03:10:32;97811.00;;;-1.30
73937;BMP180;59249;59.736;30.568;2024-02-04T03:13:03;97813.00;;;-1.20
73937;BMP180;59249;59.736;30.568;2024-02-04T03:15:34;97800.00;;;-1.20
73937;BMP180;59249;59.736;30.568;2024-02-04T03:18:04;97794.00;;;-1.20
73937;BMP180;59249;59.736;30.568;2024-02-04T03:20:34;97782.00;;;-1.20
73937;BMP180;59249;59.736;30.568;2024-02-04T03:23:04;97797.00;;;-1.20
73937;BMP180;59249;59.736;30.568;2024-02-04T03:25:37;97800.00;;;-1.20
73937;BMP180;59249;59.736;30.568;2024-02-04T03:28:07;97798.00;;;-1.20
73937;BMP180;59249;59.736;30.568;2024-02-04T03:30:45;97795.00;;;-1.30
73937;BMP180;59249;59.736;30.568;2024-02-04T03:33:25;97795.00;;;-1.30
73937;BMP180;59249;59.736;30.568;2024-02-04T03:36:01;97788.00;;;-1.30
73937;BMP180;59249;59.736;30.568;2024-02-04T03:38:37;97794.00;;;-1.30
73937;BMP180;59249;59.736;30.568;2024-02-04T03:41:12;97785.00;;;-1.40
73937;BMP180;59249;59.736;30.568;2024-02-04T03:43:43;97782.00;;;-1.40
73937;BMP180;59249;59.736;30.568;2024-02-04T03:46:15;97788.00;;;-1.40
73937;BMP180;59249;59.736;30.568;2024-02-04T03:48:46;97782.00;;;-1.30
73937;BMP180;59249;59.736;30.568;2024-02-04T03:51:23;97774.00;;;-1.40
73937;BMP180;59249;59.736;30.568;2024-02-04T03:53:57;97771.00;;;-1.30
73937;BMP180;59249;59.736;30.568;2024-02-04T03:56:32;97760.00;;;-1.30
73937;BMP180;59249;59.736;30.568;2024-02-04T03:59:03;97758.00;;;-1.40
73937;BMP180;59249;59.736;30.568;2024-02-04T04:01:47;97767.00;;;-1.50
73937;BMP180;59249;59.736;30.568;2024-02-04T04:04:17;97768.00;;;-1.50
73937;BMP180;59249;59.736;30.568;2024-02-04T04:06:46;97750.00;;;-1.60
73937;BMP180;59249;59.736;30.568;2024-02-04T04:09:16;97757.00;;;-1.60
73937;BMP180;59249;59.736;30.568;2024-02-04T04:11:49;97768.00;;;-1.70
73937;BMP180;59249;59.736;30.568;2024-02-04T04:14:20;97769.00;;;-1.70
73937;BMP180;59249;59.736;30.568;2024-02-04T04:16:49;97762.00;;;-1.80
73937;BMP180;59249;59.736;30.568;2024-02-04T04:19:19;97765.00;;;-1.80
73937;BMP180;59249;59.736;30.568;2024-02-04T04:21:52;97765.00;;;-1.90
73937;BMP180;59249;59.736;30.568;2024-02-04T04:24:21;97757.00;;;-2.00
73937;BMP180;59249;59.736;30.568;2024-02-04T04:26:52;97751.00;;;-1.90
73937;BMP180;59249;59.736;30.568;2024-02-04T04:29:22;97747.00;;;-2.00
73937;BMP180;59249;59.736;30.568;2024-02-04T04:31:54;97737.00;;;-2.00
73937;BMP180;59249;59.736;30.568;2024-02-04T04:34:25;97743.00;;;-2.00
73937;BMP180;59249;59.736;30.568;2024-02-04T04:36:54;97739.00;;;-2.00
73937;BMP180;59249;59.736;30.568;2024-02-04T04:39:24;97738.00;;;-2.00
73937;BMP180;59249;59.736;30.568;2024-02-04T04:41:54;97741.00;;;-2.10
73937;BMP180;59249;59.736;30.568;2024-02-04T04:44:23;97743.00;;;-2.10
73937;BMP180;59249;59.736;30.568;2024-02-04T04:47:01;97734.00;;;-2.10
73937;BMP180;59249;59.736;30.568;2024-02-04T04:49:36;97744.00;;;-2.10
73937;BMP180;59249;59.736;30.568;2024-02-04T04:52:08;97745.00;;;-2.20
73937;BMP180;59249;59.736;30.568;2024-02-04T04:54:43;97741.00;;;-2.30
73937;BMP180;59249;59.736;30.568;2024-02-04T04:57:15;97734.00;;;-2.30
73937;BMP180;59249;59.736;30.568;2024-02-04T04:59:49;97737.00;;;-2.40
73937;BMP180;59249;59.736;30.568;2024-02-04T05:02:18;97730.00;;;-2.40
73937;BMP180;59249;59.736;30.568;2024-02-04T05:04:48;97729.00;;;-2.50
73937;BMP180;59249;59.736;30.568;2024-02-04T05:07:20;97726.00;;;-2.40
73937;BMP180;59249;59.736;30.568;2024-02-04T05:09:52;97720.00;;;-2.30
73937;BMP180;59249;59.736;30.568;2024-02-04T05:12:33;97723.00;;;-2.30
73937;BMP180;59249;59.736;30.568;2024-02-04T05:15:04;97725.00;;;-2.20
73937;BMP180;59249;59.736;30.568;2024-02-04T05:17:34;97718.00;;;-2.10
73937;BMP180;59249;59.736;30.568;2024-02-04T05:20:05;97710.00;;;-2.00
73937;BMP180;59249;59.736;30.568;2024-02-04T05:22:35;97744.00;;;-1.90
73937;BMP180;59249;59.736;30.568;2024-02-04T05:25:05;97728.00;;;-1.80
73937;BMP180;59249;59.736;30.568;2024-02-04T05:27:38;97737.00;;;-1.70
73937;BMP180;59249;59.736;30.568;2024-02-04T05:30:10;97727.00;;;-1.60
73937;BMP180;59249;59.736;30.568;2024-02-04T05:32:41;97723.00;;;-1.50
73937;BMP180;59249;59.736;30.568;2024-02-04T05:35:12;97720.00;;;-1.40
73937;BMP180;59249;59.736;30.568;2024-02-04T05:37:42;97732.00;;;-1.30
73937;BMP180;59249;59.736;30.568;2024-02-04T05:40:13;97737.00;;;-1.30
73937;BMP180;59249;59.736;30.568;2024-02-04T05:42:48;97748.00;;;-1.20
73937;BMP180;59249;59.736;30.568;2024-02-04T05:45:20;97753.00;;;-1.20
73937;BMP180;59249;59.736;30.568;2024-02-04T05:47:49;97748.00;;;-1.10
73937;BMP180;59249;59.736;30.568;2024-02-04T05:50:24;97732.00;;;-1.00
73937;BMP180;59249;59.736;30.568;2024-02-04T05:52:54;97731.00;;;-1.00
73937;BMP180;59249;59.736;30.568;2024-02-04T05:55:24;97740.00;;;-1.00
73937;BMP180;59249;59.736;30.568;2024-02-04T05:57:54;97723.00;;;-1.00
73937;BMP180;59249;59.736;30.568;2024-02-04T06:00:24;97727.00;;;-0.90
73937;BMP180;59249;59.736;30.568;2024-02-04T06:02:56;97732.00;;;-0.80
73937;BMP180;59249;59.736;30.568;2024-02-04T06:05:25;97732.00;;;-0.80
73937;BMP180;59249;59.736;30.568;2024-02-04T06:07:54;97721.00;;;-0.70
73937;BMP180;59249;59.736;30.568;2024-02-04T06:10:23;97730.00;;;-0.70
73937;BMP180;59249;59.736;30.568;2024-02-04T06:12:56;97721.00;;;-0.60
73937;BMP180;59249;59.736;30.568;2024-02-04T06:15:26;97722.00;;;-0.50
73937;BMP180;59249;59.736;30.568;2024-02-04T06:17:57;97719.00;;;-0.50
73937;BMP180;59249;59.736;30.568;2024-02-04T06:20:27;97726.00;;;-0.40
73937;BMP180;59249;59.736;30.568;2024-02-04T06:22:56;97720.00;;;-0.30
73937;BMP180;59249;59.736;30.568;2024-02-04T06:25:25;97713.00;;;-0.30
73937;BMP180;59249;59.736;30.568;2024-02-04T06:27:58;97722.00;;;-0.30
73937;BMP180;59249;59.736;30.568;2024-02-04T06:30:29;97728.00;;;-0.20
73937;BMP180;59249;59.736;30.568;2024-02-04T06:32:58;97724.00;;;-0.20
73937;BMP180;59249;59.736;30.568;2024-02-04T06:35:27;97718.00;;;-0.20
73937;BMP180;59249;59.736;30.568;2024-02-04T06:37:56;97714.00;;;-0.20
73937;BMP180;59249;59.736;30.568;2024-02-04T06:40:28;97714.00;;;-0.10
73937;BMP180;59249;59.736;30.568;2024-02-04T06:42:58;97717.00;;;-0.10
73937;BMP180;59249;59.736;30.568;2024-02-04T06:45:27;97722.00;;;0.00
73937;BMP180;59249;59.736;30.568;2024-02-04T06:47:56;97723.00;;;0.10
73937;BMP180;59249;59.736;30.568;2024-02-04T06:50:26;97725.00;;;0.10
73937;BMP180;59249;59.736;30.568;2024-02-04T06:52:55;97719.00;;;0.10
73937;BMP180;59249;59.736;30.568;2024-02-04T06:55:24;97721.00;;;0.20
73937;BMP180;59249;59.736;30.568;2024-02-04T06:57:53;97717.00;;;0.20
73937;BMP180;59249;59.736;30.568;2024-02-04T07:00:24;97711.00;;;0.20
73937;BMP180;59249;59.736;30.568;2024-02-04T07:02:54;97715.00;;;0.30
73937;BMP180;59249;59.736;30.568;2024-02-04T07:05:24;97717.00;;;0.30
73937;BMP180;59249;59.736;30.568;2024-02-04T07:07:54;97715.00;;;0.20
73937;BMP180;59249;59.736;30.568;2024-02-04T07:10:25;97716.00;;;0.20
73937;BMP180;59249;59.736;30.568;2024-02-04T07:12:58;97721.00;;;0.30
73937;BMP180;59249;59.736;30.568;2024-02-04T07:15:30;97709.00;;;0.30
73937;BMP180;59249;59.736;30.568;2024-02-04T07:18:00;97709.00;;;0.20
73937;BMP180;59249;59.736;30.568;2024-02-04T07:20:29;97708.00;;;0.30
73937;BMP180;59249;59.736;30.568;2024-02-04T07:22:58;97705.00;;;0.30
73937;BMP180;59249;59.736;30.568;2024-02-04T07:25:27;97710.00;;;0.30
73937;BMP180;59249;59.736;30.568;2024-02-04T07:27:56;97705.00;;;0.20
73937;BMP180;59249;59.736;30.568;2024-02-04T07:30:26;97702.00;;;0.20
73937;BMP180;59249;59.736;30.568;2024-02-04T07:32:57;97696.00;;;0.30
73937;BMP180;59249;59.736;30.568;2024-02-04T07:35:32;97701.00;;;0.20
73937;BMP180;59249;59.736;30.568;2024-02-04T07:38:06;97700.00;;;0.20
73937;BMP180;59249;59.736;30.568;2024-02-04T07:40:36;97704.00;;;0.20
73937;BMP180;59249;59.736;30.568;2024-02-04T07:43:05;97691.00;;;0.20
73937;BMP180;59249;59.736;30.568;2024-02-04T07:45:35;97692.00;;;0.20
73937;BMP180;59249;59.736;30.568;2024-02-04T07:48:07;97678.00;;;0.20
73937;BMP180;59249;59.736;30.568;2024-02-04T07:50:38;97687.00;;;0.20
73937;BMP180;59249;59.736;30.568;2024-02-04T07:53:07;97685.00;;;0.20
73937;BMP180;59249;59.736;30.568;2024-02-04T07:55:36;97690.00;;;0.20
73937;BMP180;59249;59.736;30.568;2024-02-04T07:58:05;97697.00;;;0.20
73937;BMP180;59249;59.736;30.568;2024-02-04T08:00:35;97688.00;;;0.20
73937;BMP180;59249;59.736;30.568;2024-02-04T08:03:07;97678.00;;;0.20
73937;BMP180;59249;59.736;30.568;2024-02-04T08:05:36;97683.00;;;0.30
73937;BMP180;59249;59.736;30.568;2024-02-04T08:08:07;97678.00;;;0.30
73937;BMP180;59249;59.736;30.568;2024-02-04T08:10:37;97678.00;;;0.30
73937;BMP180;59249;59.736;30.568;2024-02-04T08:13:07;97684.00;;;0.40
73937;BMP180;59249;59.736;30.568;2024-02-04T08:15:36;97678.00;;;0.40
73937;BMP180;59249;59.736;30.568;2024-02-04T08:18:07;97685.00;;;0.40
73937;BMP180;59249;59.736;30.568;2024-02-04T08:20:40;97686.00;;;0.50
73937;BMP180;59249;59.736;30.568;2024-02-04T08:23:09;97691.00;;;0.50
73937;BMP180;59249;59.736;30.568;2024-02-04T08:25:38;97689.00;;;0.50
73937;BMP180;59249;59.736;30.568;2024-02-04T08:28:07;97689.00;;;0.50
73937;BMP180;59249;59.736;30.568;2024-02-04T08:30:36;97691.00;;;0.60
73937;BMP180;59249;59.736;30.568;2024-02-04T08:33:05;97687.00;;;0.60
73937;BMP180;59249;59.736;30.568;2024-02-04T08:35:37;97680.00;;;0.70
73937;BMP180;59249;59.736;30.568;2024-02-04T08:38:08;97681.00;;;0.80
73937;BMP180;59249;59.736;30.568;2024-02-04T08:40:37;97682.00;;;0.80
73937;BMP180;59249;59.736;30.568;2024-02-04T08:43:06;97685.00;;;0.90
73937;BMP180;59249;59.736;30.568;2024-02-04T08:45:36;97680.00;;;0.90
73937;BMP180;59249;59.736;30.568;2024-02-04T08:48:07;97680.00;;;0.90
73937;BMP180;59249;59.736;30.568;2024-02-04T08:50:37;97682.00;;;0.90
73937;BMP180;59249;59.736;30.568;2024-02-04T08:53:06;97691.00;;;0.90
73937;BMP180;59249;59.736;30.568;2024-02-04T08:55:38;97690.00;;;0.90
73937;BMP180;59249;59.736;30.568;2024-02-04T08:58:24;97677.00;;;0.90
73937;BMP180;59249;59.736;30.568;2024-02-04T09:00:54;97680.00;;;1.00
73937;BMP180;59249;59.736;30.568;2024-02-04T09:03:29;97679.00;;;1.00
73937;BMP180;59249;59.736;30.568;2024-02-04T09:06:04;97679.00;;;1.00
73937;BMP180;59249;59.736;30.568;2024-02-04T09:08:35;97683.00;;;1.10
73937;BMP180;59249;59.736;30.568;2024-02-04T09:11:07;97675.00;;;1.10
73937;BMP180;59249;59.736;30.568;2024-02-04T09:13:41;97687.00;;;1.10
73937;BMP180;59249;59.736;30.568;2024-02-04T09:16:15;97679.00;;;1.20
73937;BMP180;59249;59.736;30.568;2024-02-04T09:18:48;97689.00;;;1.20
73937;BMP180;59249;59.736;30.568;2024-02-04T09:21:17;97678.00;;;1.10
73937;BMP180;59249;59.736;30.568;2024-02-04T09:23:56;97684.00;;;1.20
73937;BMP180;59249;59.736;30.568;2024-02-04T09:26:32;97682.00;;;1.10
73937;BMP180;59249;59.736;30.568;2024-02-04T09:29:07;97694.00;;;1.20
73937;BMP180;59249;59.736;30.568;2024-02-04T09:31:37;97680.00;;;1.30
73937;BMP180;59249;59.736;30.568;2024-02-04T09:34:08;97689.00;;;1.30
73937;BMP180;59249;59.736;30.568;2024-02-04T09:36:37;97684.00;;;1.30
73937;BMP180;59249;59.736;30.568;2024-02-04T09:39:09;97692.00;;;1.40
73937;BMP180;59249;59.736;30.568;2024-02-04T09:41:38;97688.00;;;1.50
73937;BMP180;59249;59.736;30.568;2024-02-04T09:44:07;97689.00;;;1.60
73937;BMP180;59249;59.736;30.568;2024-02-04T09:46:37;97679.00;;;1.70
73937;BMP180;59249;59.736;30.568;2024-02-04T09:49:09;97695.00;;;1.80
73937;BMP180;59249;59.736;30.568;2024-02-04T09:51:41;97694.00;;;1.90
73937;BMP180;59249;59.736;30.568;2024-02-04T09:54:11;97683.00;;;1.80
73937;BMP180;59249;59.736;30.568;2024-02-04T09:56:42;97690.00;;;1.90
73937;BMP180;59249;59.736;30.568;2024-02-04T09:59:13;97691.00;;;2.00
73937;BMP180;59249;59.736;30.568;2024-02-04T10:01:43;97696.00;;;2.00
73937;BMP180;59249;59.736;30.568;2024-02-04T10:04:15;97689.00;;;2.10
73937;BMP180;59249;59.736;30.568;2024-02-04T10:06:44;97687.00;;;2.10
73937;BMP180;59249;59.736;30.568;2024-02-04T10:09:15;97679.00;;;2.10
73937;BMP180;59249;59.736;30.568;2024-02-04T10:11:45;97686.00;;;2.10
73937;BMP180;59249;59.736;30.568;2024-02-04T10:14:15;97681.00;;;2.10
73937;BMP180;59249;59.736;30.568;2024-02-04T10:16:46;97678.00;;;2.10
73937;BMP180;59249;59.736;30.568;2024-02-04T10:19:17;97681.00;;;2.10
73937;BMP180;59249;59.736;30.568;2024-02-04T10:21:57;97690.00;;;2.00
73937;BMP180;59249;59.736;30.568;2024-02-04T10:24:29;97684.00;;;2.20
73937;BMP180;59249;59.736;30.568;2024-02-04T10:27:01;97695.00;;;2.20
73937;BMP180;59249;59.736;30.568;2024-02-04T10:29:30;97696.00;;;2.10
73937;BMP180;59249;59.736;30.568;2024-02-04T10:32:00;97694.00;;;2.30
73937;BMP180;59249;59.736;30.568;2024-02-04T10:34:37;97695.00;;;2.30
73937;BMP180;59249;59.736;30.568;2024-02-04T10:37:22;97697.00;;;2.20
73937;BMP180;59249;59.736;30.568;2024-02-04T10:39:57;97699.00;;;2.40
73937;BMP180;59249;59.736;30.568;2024-02-04T10:42:54;97697.00;;;2.40
73937;BMP180;59249;59.736;30.568;2024-02-04T10:45:52;97694.00;;;2.50
73937;BMP180;59249;59.736;30.568;2024-02-04T10:48:29;97695.00;;;2.40
73937;BMP180;59249;59.736;30.568;2024-02-04T10:51:13;97700.00;;;2.40
73937;BMP180;59249;59.736;30.568;2024-02-04T10:53:46;97696.00;;;2.50
73937;BMP180;59249;59.736;30.568;2024-02-04T10:56:21;97706.00;;;2.50
73937;BMP180;59249;59.736;30.568;2024-02-04T10:59:04;97700.00;;;2.50
73937;BMP180;59249;59.736;30.568;2024-02-04T11:01:51;97709.00;;;2.50
73937;BMP180;59249;59.736;30.568;2024-02-04T11:04:38;97688.00;;;2.40
73937;BMP180;59249;59.736;30.568;2024-02-04T11:07:17;97704.00;;;2.40
73937;BMP180;59249;59.736;30.568;2024-02-04T11:09:52;97704.00;;;2.40
73937;BMP180;59249;59.736;30.568;2024-02-04T11:12:28;97701.00;;;2.40
73937;BMP180;59249;59.736;30.568;2024-02-04T11:15:03;97705.00;;;2.40
73937;BMP180;59249;59.736;30.568;2024-02-04T11:18:20;97713.00;;;2.40
73937;BMP180;59249;59.736;30.568;2024-02-04T11:21:39;97703.00;;;2.30
73937;BMP180;59249;59.736;30.568;2024-02-04T11:24:40;97701.00;;;2.30
73937;BMP180;59249;59.736;30.568;2024-02-04T11:27:19;97711.00;;;2.20
73937;BMP180;59249;59.736;30.568;2024-02-04T11:29:50;97701.00;;;2.20
73937;BMP180;59249;59.736;30.568;2024-02-04T11:32:20;97700.00;;;2.20
73937;BMP180;59249;59.736;30.568;2024-02-04T11:34:49;97702.00;;;2.20
73937;BMP180;59249;59.736;30.568;2024-02-04T11:37:26;97710.00;;;2.30
73937;BMP180;59249;59.736;30.568;2024-02-04T11:40:06;97708.00;;;2.30
73937;BMP180;59249;59.736;30.568;2024-02-04T11:42:35;97703.00;;;2.30
73937;BMP180;59249;59.736;30.568;2024-02-04T11:45:07;97700.00;;;2.20
73937;BMP180;59249;59.736;30.568;2024-02-04T11:47:39;97699.00;;;2.10
73937;BMP180;59249;59.736;30.568;2024-02-04T11:50:09;97687.00;;;2.10
73937;BMP180;59249;59.736;30.568;2024-02-04T11:53:05;97695.00;;;2.20
73937;BMP180;59249;59.736;30.568;2024-02-04T11:55:39;97692.00;;;2.10
73937;BMP180;59249;59.736;30.568;2024-02-04T11:58:12;97687.00;;;2.00
73937;BMP180;59249;59.736;30.568;2024-02-04T12:00:46;97698.00;;;2.10
73937;BMP180;59249;59.736;30.568;2024-02-04T12:03:29;97695.00;;;2.10
73937;BMP180;59249;59.736;30.568;2024-02-04T12:06:04;97691.00;;;2.10
73937;BMP180;59249;59.736;30.568;2024-02-04T12:08:40;97690.00;;;2.10
73937;BMP180;59249;59.736;30.568;2024-02-04T12:11:14;97690.00;;;2.10
73937;BMP180;59249;59.736;30.568;2024-02-04T12:13:48;97698.00;;;1.90
73937;BMP180;59249;59.736;30.568;2024-02-04T12:16:20;97699.00;;;2.00
73937;BMP180;59249;59.736;30.568;2024-02-04T12:19:11;97711.00;;;2.10
73937;BMP180;59249;59.736;30.568;2024-02-04T12:21:44;97711.00;;;2.10
73937;BMP180;59249;59.736;30.568;2024-02-04T12:24:16;97700.00;;;2.10
73937;BMP180;59249;59.736;30.568;2024-02-04T12:26:50;97714.00;;;2.10
73937;BMP180;59249;59.736;30.568;2024-02-04T12:29:25;97709.00;;;1.90
73937;BMP180;59249;59.736;30.568;2024-02-04T12:32:01;97710.00;;;2.00
73937;BMP180;59249;59.736;30.568;2024-02-04T12:34:36;97718.00;;;1.90
73937;BMP180;59249;59.736;30.568;2024-02-04T12:37:08;97718.00;;;2.00
73937;BMP180;59249;59.736;30.568;2024-02-04T12:39:41;97710.00;;;1.90
73937;BMP180;59249;59.736;30.568;2024-02-04T12:42:16;97714.00;;;1.90
73937;BMP180;59249;59.736;30.568;2024-02-04T12:44:49;97713.00;;;1.80
73937;BMP180;59249;59.736;30.568;2024-02-04T12:47:24;97725.00;;;1.90
73937;BMP180;59249;59.736;30.568;2024-02-04T12:50:07;97718.00;;;1.90
73937;BMP180;59249;59.736;30.568;2024-02-04T12:52:41;97728.00;;;2.00
73937;BMP180;59249;59.736;30.568;2024-02-04T12:55:26;97726.00;;;1.80
73937;BMP180;59249;59.736;30.568;2024-02-04T12:58:04;97740.00;;;1.90
73937;BMP180;59249;59.736;30.568;2024-02-04T13:00:46;97728.00;;;1.90
73937;BMP180;59249;59.736;30.568;2024-02-04T13:03:16;97736.00;;;1.80
73937;BMP180;59249;59.736;30.568;2024-02-04T13:05:47;97739.00;;;1.80
73937;BMP180;59249;59.736;30.568;2024-02-04T13:08:31;97728.00;;;1.80
73937;BMP180;59249;59.736;30.568;2024-02-04T13:11:19;97731.00;;;1.70
73937;BMP180;59249;59.736;30.568;2024-02-04T13:13:50;97649.00;;;1.60
73937;BMP180;59249;59.736;30.568;2024-02-04T13:16:21;97711.00;;;1.40
73937;BMP180;59249;59.736;30.568;2024-02-04T13:18:53;97733.00;;;1.40
73937;BMP180;59249;59.736;30.568;2024-02-04T13:21:27;97735.00;;;1.40
73937;BMP180;59249;59.736;30.568;2024-02-04T13:24:00;97731.00;;;1.30
73937;BMP180;59249;59.736;30.568;2024-02-04T13:26:29;97742.00;;;1.30
73937;BMP180;59249;59.736;30.568;2024-02-04T13:29:00;97728.00;;;1.30
73937;BMP180;59249;59.736;30.568;2024-02-04T13:31:32;97737.00;;;1.30
73937;BMP180;59249;59.736;30.568;2024-02-04T13:34:01;97730.00;;;1.30
73937;BMP180;59249;59.736;30.568;2024-02-04T13:36:33;97737.00;;;1.30
73937;BMP180;59249;59.736;30.568;2024-02-04T13:39:04;97740.00;;;1.40
73937;BMP180;59249;59.736;30.568;2024-02-04T13:41:35;97740.00;;;1.20
73937;BMP180;59249;59.736;30.568;2024-02-04T13:44:06;97742.00;;;1.30
73937;BMP180;59249;59.736;30.568;2024-02-04T13:46:36;97736.00;;;1.30
73937;BMP180;59249;59.736;30.568;2024-02-04T13:49:09;97745.00;;;1.20
73937;BMP180;59249;59.736;30.568;2024-02-04T13:51:43;97740.00;;;1.20
73937;BMP180;59249;59.736;30.568;2024-02-04T13:54:13;97750.00;;;1.20
73937;BMP180;59249;59.736;30.568;2024-02-04T13:56:45;97743.00;;;1.20
73937;BMP180;59249;59.736;30.568;2024-02-04T13:59:19;97743.00;;;1.10
73937;BMP180;59249;59.736;30.568;2024-02-04T14:01:50;97748.00;;;1.10
73937;BMP180;59249;59.736;30.568;2024-02-04T14:04:29;97734.00;;;1.00
73937;BMP180;59249;59.736;30.568;2024-02-04T14:06:59;97745.00;;;1.00
73937;BMP180;59249;59.736;30.568;2024-02-04T14:09:28;97751.00;;;1.10
73937;BMP180;59249;59.736;30.568;2024-02-04T14:12:02;97745.00;;;1.10
73937;BMP180;59249;59.736;30.568;2024-02-04T14:14:33;97741.00;;;1.00
73937;BMP180;59249;59.736;30.568;2024-02-04T14:17:04;97752.00;;;1.10
73937;BMP180;59249;59.736;30.568;2024-02-04T14:19:34;97740.00;;;1.00
73937;BMP180;59249;59.736;30.568;2024-02-04T14:22:04;97745.00;;;1.00
73937;BMP180;59249;59.736;30.568;2024-02-04T14:24:46;97744.00;;;1.00
73937;BMP180;59249;59.736;30.568;2024-02-04T14:27:15;97742.00;;;1.00
73937;BMP180;59249;59.736;30.568;2024-02-04T14:29:46;97746.00;;;1.00
73937;BMP180;59249;59.736;30.568;2024-02-04T14:32:15;97745.00;;;0.90
73937;BMP180;59249;59.736;30.568;2024-02-04T14:34:46;97742.00;;;1.00
73937;BMP180;59249;59.736;30.568;2024-02-04T14:37:16;97738.00;;;1.00